sensor_id;sensor_type;location;lat;lon;timestamp;temperature;humidity
16200;DHT22;8207;52.494;4.654;2022-10-16T00:00:45;14.50;99.90
16200;DHT22;8207;52.494;4.654;2022-10-16T00:03:11;14.50;99.90
16200;DHT22;8207;52.494;4.654;2022-10-16T00:05:40;14.40;99.90
16200;DHT22;8207;52.494;4.654;2022-10-16T00:08:07;14.40;99.90
16200;DHT22;8207;52.494;4.654;2022-10-16T00:10:34;14.40;99.90
16200;DHT22;8207;52.494;4.654;2022-10-16T00:13:03;14.40;99.90
16200;DHT22;8207;52.494;4.654;2022-10-16T00:15:30;14.40;99.90
16200;DHT22;8207;52.494;4.654;2022-10-16T00:17:59;14.40;99.90
16200;DHT22;8207;52.494;4.654;2022-10-16T00:20:26;14.50;99.90
16200;DHT22;8207;52.494;4.654;2022-10-16T00:22:53;14.50;99.90
16200;DHT22;8207;52.494;4.654;2022-10-16T00:25:20;14.50;99.90
16200;DHT22;8207;52.494;4.654;2022-10-16T00:27:47;14.50;99.90
16200;DHT22;8207;52.494;4.654;2022-10-16T00:30:15;14.50;99.90
16200;DHT22;8207;52.494;4.654;2022-10-16T00:32:42;14.60;99.90
16200;DHT22;8207;52.494;4.654;2022-10-16T00:35:09;14.60;99.90
16200;DHT22;8207;52.494;4.654;2022-10-16T00:37:36;14.60;99.90
16200;DHT22;8207;52.494;4.654;2022-10-16T00:40:03;14.60;99.90
16200;DHT22;8207;52.494;4.654;2022-10-16T00:42:30;14.60;99.90
16200;DHT22;8207;52.494;4.654;2022-10-16T00:44:57;14.60;99.90
16200;DHT22;8207;52.494;4.654;2022-10-16T00:47:29;14.50;99.90
16200;DHT22;8207;52.494;4.654;2022-10-16T00:50:00;14.60;99.90
16200;DHT22;8207;52.494;4.654;2022-10-16T00:52:31;14.60;99.90
16200;DHT22;8207;52.494;4.654;2022-10-16T00:54:58;14.60;99.90
16200;DHT22;8207;52.494;4.654;2022-10-16T00:57:26;14.60;99.90
16200;DHT22;8207;52.494;4.654;2022-10-16T00:59:53;14.60;99.90
16200;DHT22;8207;52.494;4.654;2022-10-16T01:02:20;14.50;99.90
16200;DHT22;8207;52.494;4.654;2022-10-16T01:04:51;14.50;99.90
16200;DHT22;8207;52.494;4.654;2022-10-16T01:07:26;14.60;99.90
16200;DHT22;8207;52.494;4.654;2022-10-16T01:10:03;14.50;99.90
16200;DHT22;8207;52.494;4.654;2022-10-16T01:12:38;14.50;99.90
16200;DHT22;8207;52.494;4.654;2022-10-16T01:15:12;14.50;99.90
16200;DHT22;8207;52.494;4.654;2022-10-16T01:17:44;14.60;99.90
16200;DHT22;8207;52.494;4.654;2022-10-16T01:20:20;14.50;99.90
16200;DHT22;8207;52.494;4.654;2022-10-16T01:23:06;14.60;99.90
16200;DHT22;8207;52.494;4.654;2022-10-16T01:26:03;14.50;99.90
16200;DHT22;8207;52.494;4.654;2022-10-16T01:28:36;14.50;99.90
16200;DHT22;8207;52.494;4.654;2022-10-16T01:31:05;14.50;99.90
16200;DHT22;8207;52.494;4.654;2022-10-16T01:33:37;14.40;99.90
16200;DHT22;8207;52.494;4.654;2022-10-16T01:36:10;14.40;99.90
16200;DHT22;8207;52.494;4.654;2022-10-16T01:38:39;14.30;99.90
16200;DHT22;8207;52.494;4.654;2022-10-16T01:41:09;14.30;99.90
16200;DHT22;8207;52.494;4.654;2022-10-16T01:43:40;14.40;99.90
16200;DHT22;8207;52.494;4.654;2022-10-16T01:46:10;14.30;99.90
16200;DHT22;8207;52.494;4.654;2022-10-16T01:48:39;14.30;99.90
16200;DHT22;8207;52.494;4.654;2022-10-16T01:51:09;14.30;99.90
16200;DHT22;8207;52.494;4.654;2022-10-16T01:53:37;14.30;99.90
16200;DHT22;8207;52.494;4.654;2022-10-16T01:56:08;14.30;99.90
16200;DHT22;8207;52.494;4.654;2022-10-16T01:58:42;14.30;99.90
16200;DHT22;8207;52.494;4.654;2022-10-16T02:01:11;14.30;99.90
16200;DHT22;8207;52.494;4.654;2022-10-16T02:03:40;14.30;99.90
16200;DHT22;8207;52.494;4.654;2022-10-16T02:06:08;14.30;99.90
16200;DHT22;8207;52.494;4.654;2022-10-16T02:08:36;14.30;99.90
16200;DHT22;8207;52.494;4.654;2022-10-16T02:11:04;14.40;99.90
16200;DHT22;8207;52.494;4.654;2022-10-16T02:13:35;14.30;99.90
16200;DHT22;8207;52.494;4.654;2022-10-16T02:16:05;14.30;99.90
16200;DHT22;8207;52.494;4.654;2022-10-16T02:18:32;14.30;99.90
16200;DHT22;8207;52.494;4.654;2022-10-16T02:21:02;14.30;99.90
16200;DHT22;8207;52.494;4.654;2022-10-16T02:23:37;14.30;99.90
16200;DHT22;8207;52.494;4.654;2022-10-16T02:26:13;14.30;99.90
16200;DHT22;8207;52.494;4.654;2022-10-16T02:28:44;14.30;99.90
16200;DHT22;8207;52.494;4.654;2022-10-16T02:31:18;14.20;99.90
16200;DHT22;8207;52.494;4.654;2022-10-16T02:33:47;14.20;99.90
16200;DHT22;8207;52.494;4.654;2022-10-16T02:36:14;14.20;99.90
16200;DHT22;8207;52.494;4.654;2022-10-16T02:38:41;14.10;99.90
16200;DHT22;8207;52.494;4.654;2022-10-16T02:41:08;14.10;99.90
16200;DHT22;8207;52.494;4.654;2022-10-16T02:43:35;14.10;99.90
16200;DHT22;8207;52.494;4.654;2022-10-16T02:46:02;14.10;99.90
16200;DHT22;8207;52.494;4.654;2022-10-16T02:48:31;14.10;99.90
16200;DHT22;8207;52.494;4.654;2022-10-16T02:50:58;14.20;99.90
16200;DHT22;8207;52.494;4.654;2022-10-16T02:53:25;14.20;99.90
16200;DHT22;8207;52.494;4.654;2022-10-16T02:55:51;14.20;99.90
16200;DHT22;8207;52.494;4.654;2022-10-16T02:58:18;14.20;99.90
16200;DHT22;8207;52.494;4.654;2022-10-16T03:00:45;14.20;99.90
16200;DHT22;8207;52.494;4.654;2022-10-16T03:03:12;14.20;99.90
16200;DHT22;8207;52.494;4.654;2022-10-16T03:05:40;14.20;99.90
16200;DHT22;8207;52.494;4.654;2022-10-16T03:08:11;14.20;99.90
16200;DHT22;8207;52.494;4.654;2022-10-16T03:10:38;14.20;99.90
16200;DHT22;8207;52.494;4.654;2022-10-16T03:13:07;14.20;99.90
16200;DHT22;8207;52.494;4.654;2022-10-16T03:15:34;14.20;99.90
16200;DHT22;8207;52.494;4.654;2022-10-16T03:18:01;14.30;99.90
16200;DHT22;8207;52.494;4.654;2022-10-16T03:20:27;14.30;99.90
16200;DHT22;8207;52.494;4.654;2022-10-16T03:22:56;14.20;99.90
16200;DHT22;8207;52.494;4.654;2022-10-16T03:25:23;14.20;99.90
16200;DHT22;8207;52.494;4.654;2022-10-16T03:27:49;14.10;99.90
16200;DHT22;8207;52.494;4.654;2022-10-16T03:30:16;14.10;99.90
16200;DHT22;8207;52.494;4.654;2022-10-16T03:32:44;14.10;99.90
16200;DHT22;8207;52.494;4.654;2022-10-16T03:35:12;14.10;99.90
16200;DHT22;8207;52.494;4.654;2022-10-16T03:37:39;14.10;99.90
16200;DHT22;8207;52.494;4.654;2022-10-16T03:40:08;14.10;99.90
16200;DHT22;8207;52.494;4.654;2022-10-16T03:42:35;14.10;99.90
16200;DHT22;8207;52.494;4.654;2022-10-16T03:45:02;14.00;99.90
16200;DHT22;8207;52.494;4.654;2022-10-16T03:47:29;14.00;99.90
16200;DHT22;8207;52.494;4.654;2022-10-16T03:49:58;14.00;99.90
16200;DHT22;8207;52.494;4.654;2022-10-16T03:52:25;13.90;99.90
16200;DHT22;8207;52.494;4.654;2022-10-16T03:54:52;13.90;99.90
16200;DHT22;8207;52.494;4.654;2022-10-16T03:57:20;13.90;99.90
16200;DHT22;8207;52.494;4.654;2022-10-16T03:59:47;13.90;99.90
16200;DHT22;8207;52.494;4.654;2022-10-16T04:02:14;13.90;99.90
16200;DHT22;8207;52.494;4.654;2022-10-16T04:04:41;13.80;99.90
16200;DHT22;8207;52.494;4.654;2022-10-16T04:07:08;13.80;99.90
16200;DHT22;8207;52.494;4.654;2022-10-16T04:09:34;13.90;99.90
16200;DHT22;8207;52.494;4.654;2022-10-16T04:12:01;13.90;99.90
16200;DHT22;8207;52.494;4.654;2022-10-16T04:14:30;13.80;99.90
16200;DHT22;8207;52.494;4.654;2022-10-16T04:16:56;13.80;99.90
16200;DHT22;8207;52.494;4.654;2022-10-16T04:19:23;13.80;99.90
16200;DHT22;8207;52.494;4.654;2022-10-16T04:21:50;13.80;99.90
16200;DHT22;8207;52.494;4.654;2022-10-16T04:24:17;13.80;99.90
16200;DHT22;8207;52.494;4.654;2022-10-16T04:26:44;13.90;99.90
16200;DHT22;8207;52.494;4.654;2022-10-16T04:29:11;13.90;99.90
16200;DHT22;8207;52.494;4.654;2022-10-16T04:31:39;13.80;99.90
16200;DHT22;8207;52.494;4.654;2022-10-16T04:34:06;13.80;99.90
16200;DHT22;8207;52.494;4.654;2022-10-16T04:38:58;13.80;99.90
16200;DHT22;8207;52.494;4.654;2022-10-16T04:41:25;13.70;99.90
16200;DHT22;8207;52.494;4.654;2022-10-16T04:43:52;13.70;99.90
16200;DHT22;8207;52.494;4.654;2022-10-16T04:46:19;13.70;99.90
16200;DHT22;8207;52.494;4.654;2022-10-16T04:48:47;13.70;99.90
16200;DHT22;8207;52.494;4.654;2022-10-16T04:51:14;13.70;99.90
16200;DHT22;8207;52.494;4.654;2022-10-16T04:53:41;13.70;99.90
16200;DHT22;8207;52.494;4.654;2022-10-16T04:56:08;13.70;99.90
16200;DHT22;8207;52.494;4.654;2022-10-16T04:58:34;13.80;99.90
16200;DHT22;8207;52.494;4.654;2022-10-16T05:01:01;13.90;99.90
16200;DHT22;8207;52.494;4.654;2022-10-16T05:03:28;13.90;99.90
16200;DHT22;8207;52.494;4.654;2022-10-16T05:05:56;13.90;99.90
16200;DHT22;8207;52.494;4.654;2022-10-16T05:08:23;13.90;99.90
16200;DHT22;8207;52.494;4.654;2022-10-16T05:10:50;14.00;99.90
16200;DHT22;8207;52.494;4.654;2022-10-16T05:13:17;14.00;99.90
16200;DHT22;8207;52.494;4.654;2022-10-16T05:15:47;14.00;99.90
16200;DHT22;8207;52.494;4.654;2022-10-16T05:18:14;14.00;99.90
16200;DHT22;8207;52.494;4.654;2022-10-16T05:20:41;14.00;99.90
16200;DHT22;8207;52.494;4.654;2022-10-16T05:23:10;14.00;99.90
16200;DHT22;8207;52.494;4.654;2022-10-16T05:25:37;13.90;99.90
16200;DHT22;8207;52.494;4.654;2022-10-16T05:28:04;14.00;99.90
16200;DHT22;8207;52.494;4.654;2022-10-16T05:30:31;14.00;99.90
16200;DHT22;8207;52.494;4.654;2022-10-16T05:32:58;14.00;99.90
16200;DHT22;8207;52.494;4.654;2022-10-16T05:35:24;14.00;99.90
16200;DHT22;8207;52.494;4.654;2022-10-16T05:37:52;13.90;99.90
16200;DHT22;8207;52.494;4.654;2022-10-16T05:40:20;13.90;99.90
16200;DHT22;8207;52.494;4.654;2022-10-16T05:42:47;13.80;99.90
16200;DHT22;8207;52.494;4.654;2022-10-16T05:45:14;13.80;99.90
16200;DHT22;8207;52.494;4.654;2022-10-16T05:47:41;13.80;99.90
16200;DHT22;8207;52.494;4.654;2022-10-16T05:50:08;13.80;99.90
16200;DHT22;8207;52.494;4.654;2022-10-16T05:52:35;13.80;99.90
16200;DHT22;8207;52.494;4.654;2022-10-16T05:55:02;13.80;99.90
16200;DHT22;8207;52.494;4.654;2022-10-16T05:57:30;13.80;99.90
16200;DHT22;8207;52.494;4.654;2022-10-16T05:59:57;13.80;99.90
16200;DHT22;8207;52.494;4.654;2022-10-16T06:02:24;13.70;99.90
16200;DHT22;8207;52.494;4.654;2022-10-16T06:04:51;13.70;99.90
16200;DHT22;8207;52.494;4.654;2022-10-16T06:07:19;13.70;99.90
16200;DHT22;8207;52.494;4.654;2022-10-16T06:09:48;13.70;99.90
16200;DHT22;8207;52.494;4.654;2022-10-16T06:12:15;13.70;99.90
16200;DHT22;8207;52.494;4.654;2022-10-16T06:14:44;13.70;99.90
16200;DHT22;8207;52.494;4.654;2022-10-16T06:17:12;13.70;99.90
16200;DHT22;8207;52.494;4.654;2022-10-16T06:19:39;13.70;99.90
16200;DHT22;8207;52.494;4.654;2022-10-16T06:22:06;13.60;99.90
16200;DHT22;8207;52.494;4.654;2022-10-16T06:24:33;13.60;99.90
16200;DHT22;8207;52.494;4.654;2022-10-16T06:27:00;13.60;99.90
16200;DHT22;8207;52.494;4.654;2022-10-16T06:29:27;13.60;99.90
16200;DHT22;8207;52.494;4.654;2022-10-16T06:31:55;13.50;99.90
16200;DHT22;8207;52.494;4.654;2022-10-16T06:34:22;13.50;99.90
16200;DHT22;8207;52.494;4.654;2022-10-16T06:36:49;13.50;99.90
16200;DHT22;8207;52.494;4.654;2022-10-16T06:39:15;13.60;99.90
16200;DHT22;8207;52.494;4.654;2022-10-16T06:41:42;13.50;99.90
16200;DHT22;8207;52.494;4.654;2022-10-16T06:44:09;13.50;99.90
16200;DHT22;8207;52.494;4.654;2022-10-16T06:46:39;13.50;99.90
16200;DHT22;8207;52.494;4.654;2022-10-16T06:49:08;13.50;99.90
16200;DHT22;8207;52.494;4.654;2022-10-16T06:51:35;13.50;99.90
16200;DHT22;8207;52.494;4.654;2022-10-16T06:54:06;13.50;99.90
16200;DHT22;8207;52.494;4.654;2022-10-16T06:56:33;13.60;99.90
16200;DHT22;8207;52.494;4.654;2022-10-16T06:59:01;13.60;99.90
16200;DHT22;8207;52.494;4.654;2022-10-16T07:01:28;13.60;99.90
16200;DHT22;8207;52.494;4.654;2022-10-16T07:03:55;13.60;99.90
16200;DHT22;8207;52.494;4.654;2022-10-16T07:06:25;13.60;99.90
16200;DHT22;8207;52.494;4.654;2022-10-16T07:08:52;13.60;99.90
16200;DHT22;8207;52.494;4.654;2022-10-16T07:11:20;13.70;99.90
16200;DHT22;8207;52.494;4.654;2022-10-16T07:13:48;13.70;99.90
16200;DHT22;8207;52.494;4.654;2022-10-16T07:16:17;13.70;99.90
16200;DHT22;8207;52.494;4.654;2022-10-16T07:18:45;13.70;99.90
16200;DHT22;8207;52.494;4.654;2022-10-16T07:21:15;13.80;99.90
16200;DHT22;8207;52.494;4.654;2022-10-16T07:23:44;13.90;99.90
16200;DHT22;8207;52.494;4.654;2022-10-16T07:26:11;13.90;99.90
16200;DHT22;8207;52.494;4.654;2022-10-16T07:28:38;14.00;99.90
16200;DHT22;8207;52.494;4.654;2022-10-16T07:31:07;13.90;99.90
16200;DHT22;8207;52.494;4.654;2022-10-16T07:33:37;13.90;99.90
16200;DHT22;8207;52.494;4.654;2022-10-16T07:36:04;14.00;99.90
16200;DHT22;8207;52.494;4.654;2022-10-16T07:38:31;14.10;99.90
16200;DHT22;8207;52.494;4.654;2022-10-16T07:41:01;14.20;99.90
16200;DHT22;8207;52.494;4.654;2022-10-16T07:43:29;14.20;99.90
16200;DHT22;8207;52.494;4.654;2022-10-16T07:45:56;14.30;99.90
16200;DHT22;8207;52.494;4.654;2022-10-16T07:48:25;14.30;99.90
16200;DHT22;8207;52.494;4.654;2022-10-16T07:50:56;14.30;99.90
16200;DHT22;8207;52.494;4.654;2022-10-16T07:53:23;14.40;99.90
16200;DHT22;8207;52.494;4.654;2022-10-16T07:55:50;14.50;99.90
16200;DHT22;8207;52.494;4.654;2022-10-16T07:58:18;14.60;99.90
16200;DHT22;8207;52.494;4.654;2022-10-16T08:00:45;14.60;99.90
16200;DHT22;8207;52.494;4.654;2022-10-16T08:03:11;14.70;99.90
16200;DHT22;8207;52.494;4.654;2022-10-16T08:05:38;14.70;99.90
16200;DHT22;8207;52.494;4.654;2022-10-16T08:08:05;14.50;99.90
16200;DHT22;8207;52.494;4.654;2022-10-16T08:10:32;14.40;99.90
16200;DHT22;8207;52.494;4.654;2022-10-16T08:12:59;14.40;99.90
16200;DHT22;8207;52.494;4.654;2022-10-16T08:15:27;14.50;99.90
16200;DHT22;8207;52.494;4.654;2022-10-16T08:17:55;14.50;99.90
16200;DHT22;8207;52.494;4.654;2022-10-16T08:20:23;14.50;99.90
16200;DHT22;8207;52.494;4.654;2022-10-16T08:22:49;14.60;99.90
16200;DHT22;8207;52.494;4.654;2022-10-16T08:25:16;14.70;99.90
16200;DHT22;8207;52.494;4.654;2022-10-16T08:27:45;14.70;99.90
16200;DHT22;8207;52.494;4.654;2022-10-16T08:30:12;14.80;99.90
16200;DHT22;8207;52.494;4.654;2022-10-16T08:32:41;14.80;99.90
16200;DHT22;8207;52.494;4.654;2022-10-16T08:35:08;14.80;99.90
16200;DHT22;8207;52.494;4.654;2022-10-16T08:37:36;14.80;99.90
16200;DHT22;8207;52.494;4.654;2022-10-16T08:40:04;14.80;99.90
16200;DHT22;8207;52.494;4.654;2022-10-16T08:42:45;14.90;99.90
16200;DHT22;8207;52.494;4.654;2022-10-16T08:45:38;14.90;99.90
16200;DHT22;8207;52.494;4.654;2022-10-16T08:48:17;14.90;99.90
16200;DHT22;8207;52.494;4.654;2022-10-16T08:50:47;14.90;99.90
16200;DHT22;8207;52.494;4.654;2022-10-16T08:53:18;15.00;99.90
16200;DHT22;8207;52.494;4.654;2022-10-16T08:55:48;15.00;99.90
16200;DHT22;8207;52.494;4.654;2022-10-16T08:58:17;15.10;99.90
16200;DHT22;8207;52.494;4.654;2022-10-16T09:00:48;15.10;99.90
16200;DHT22;8207;52.494;4.654;2022-10-16T09:03:29;15.20;99.90
16200;DHT22;8207;52.494;4.654;2022-10-16T09:06:10;15.30;99.90
16200;DHT22;8207;52.494;4.654;2022-10-16T09:08:46;15.20;99.90
16200;DHT22;8207;52.494;4.654;2022-10-16T09:11:24;15.30;99.90
16200;DHT22;8207;52.494;4.654;2022-10-16T09:13:58;15.30;99.90
16200;DHT22;8207;52.494;4.654;2022-10-16T09:16:32;15.40;99.90
16200;DHT22;8207;52.494;4.654;2022-10-16T09:19:09;15.40;99.90
16200;DHT22;8207;52.494;4.654;2022-10-16T09:21:41;15.40;99.90
16200;DHT22;8207;52.494;4.654;2022-10-16T09:24:13;15.50;99.90
16200;DHT22;8207;52.494;4.654;2022-10-16T09:26:40;15.40;99.90
16200;DHT22;8207;52.494;4.654;2022-10-16T09:29:09;15.50;99.90
16200;DHT22;8207;52.494;4.654;2022-10-16T09:31:37;15.50;99.90
16200;DHT22;8207;52.494;4.654;2022-10-16T09:34:08;15.60;99.90
16200;DHT22;8207;52.494;4.654;2022-10-16T09:36:45;15.70;99.90
16200;DHT22;8207;52.494;4.654;2022-10-16T09:39:12;15.80;99.90
16200;DHT22;8207;52.494;4.654;2022-10-16T09:41:41;15.90;99.90
16200;DHT22;8207;52.494;4.654;2022-10-16T09:44:19;16.00;99.90
16200;DHT22;8207;52.494;4.654;2022-10-16T09:46:47;16.00;99.90
16200;DHT22;8207;52.494;4.654;2022-10-16T09:49:23;16.10;99.90
16200;DHT22;8207;52.494;4.654;2022-10-16T09:51:51;16.10;99.90
16200;DHT22;8207;52.494;4.654;2022-10-16T09:54:29;16.20;99.90
16200;DHT22;8207;52.494;4.654;2022-10-16T09:57:04;16.30;99.90
16200;DHT22;8207;52.494;4.654;2022-10-16T09:59:31;16.30;99.90
16200;DHT22;8207;52.494;4.654;2022-10-16T10:02:02;16.30;99.90
16200;DHT22;8207;52.494;4.654;2022-10-16T10:04:40;16.40;99.90
16200;DHT22;8207;52.494;4.654;2022-10-16T10:07:17;16.50;99.90
16200;DHT22;8207;52.494;4.654;2022-10-16T10:09:45;16.50;99.90
16200;DHT22;8207;52.494;4.654;2022-10-16T10:12:21;16.60;99.90
16200;DHT22;8207;52.494;4.654;2022-10-16T10:14:50;16.70;99.90
16200;DHT22;8207;52.494;4.654;2022-10-16T10:17:19;16.80;99.90
16200;DHT22;8207;52.494;4.654;2022-10-16T10:19:52;16.80;99.90
16200;DHT22;8207;52.494;4.654;2022-10-16T10:22:25;16.80;99.90
16200;DHT22;8207;52.494;4.654;2022-10-16T10:27:46;16.70;99.90
16200;DHT22;8207;52.494;4.654;2022-10-16T10:30:18;16.80;99.90
16200;DHT22;8207;52.494;4.654;2022-10-16T10:32:56;16.80;99.90
16200;DHT22;8207;52.494;4.654;2022-10-16T10:35:36;16.90;99.90
16200;DHT22;8207;52.494;4.654;2022-10-16T10:38:20;16.90;99.90
16200;DHT22;8207;52.494;4.654;2022-10-16T10:40:52;17.00;99.90
16200;DHT22;8207;52.494;4.654;2022-10-16T10:43:30;17.20;99.90
16200;DHT22;8207;52.494;4.654;2022-10-16T10:46:08;17.30;99.90
16200;DHT22;8207;52.494;4.654;2022-10-16T10:48:51;17.50;99.90
16200;DHT22;8207;52.494;4.654;2022-10-16T10:51:27;17.60;99.90
16200;DHT22;8207;52.494;4.654;2022-10-16T10:54:03;17.70;99.90
16200;DHT22;8207;52.494;4.654;2022-10-16T10:56:42;17.70;95.30
16200;DHT22;8207;52.494;4.654;2022-10-16T10:59:32;17.80;99.90
16200;DHT22;8207;52.494;4.654;2022-10-16T11:02:10;17.90;91.70
16200;DHT22;8207;52.494;4.654;2022-10-16T11:04:50;18.00;92.10
16200;DHT22;8207;52.494;4.654;2022-10-16T11:07:26;18.10;72.70
16200;DHT22;8207;52.494;4.654;2022-10-16T11:09:57;18.20;28.70
16200;DHT22;8207;52.494;4.654;2022-10-16T11:12:29;18.20;1.00
16200;DHT22;8207;52.494;4.654;2022-10-16T11:15:01;18.30;1.00
16200;DHT22;8207;52.494;4.654;2022-10-16T11:17:33;18.40;1.00
16200;DHT22;8207;52.494;4.654;2022-10-16T11:20:05;18.50;1.00
16200;DHT22;8207;52.494;4.654;2022-10-16T11:22:42;18.60;1.00
16200;DHT22;8207;52.494;4.654;2022-10-16T11:25:15;18.60;1.00
16200;DHT22;8207;52.494;4.654;2022-10-16T11:27:47;18.60;1.00
16200;DHT22;8207;52.494;4.654;2022-10-16T11:30:20;18.70;1.00
16200;DHT22;8207;52.494;4.654;2022-10-16T11:32:56;18.80;1.00
16200;DHT22;8207;52.494;4.654;2022-10-16T11:35:36;18.80;1.00
16200;DHT22;8207;52.494;4.654;2022-10-16T11:38:12;18.80;1.00
16200;DHT22;8207;52.494;4.654;2022-10-16T11:40:43;18.80;1.00
16200;DHT22;8207;52.494;4.654;2022-10-16T11:43:17;18.70;1.00
16200;DHT22;8207;52.494;4.654;2022-10-16T11:45:50;18.60;1.00
16200;DHT22;8207;52.494;4.654;2022-10-16T11:48:23;18.60;1.00
16200;DHT22;8207;52.494;4.654;2022-10-16T11:50:54;18.40;1.00
16200;DHT22;8207;52.494;4.654;2022-10-16T11:53:31;18.30;1.00
16200;DHT22;8207;52.494;4.654;2022-10-16T11:56:01;18.00;1.00
16200;DHT22;8207;52.494;4.654;2022-10-16T11:58:32;17.90;1.00
16200;DHT22;8207;52.494;4.654;2022-10-16T12:01:12;17.90;1.00
16200;DHT22;8207;52.494;4.654;2022-10-16T12:03:47;17.90;1.00
16200;DHT22;8207;52.494;4.654;2022-10-16T12:06:27;17.90;1.00
16200;DHT22;8207;52.494;4.654;2022-10-16T12:08:59;17.90;1.00
16200;DHT22;8207;52.494;4.654;2022-10-16T12:11:36;18.00;14.50
16200;DHT22;8207;52.494;4.654;2022-10-16T12:14:21;18.20;1.00
16200;DHT22;8207;52.494;4.654;2022-10-16T12:16:54;18.20;1.00
16200;DHT22;8207;52.494;4.654;2022-10-16T12:19:24;18.40;1.00
16200;DHT22;8207;52.494;4.654;2022-10-16T12:21:55;18.50;1.00
16200;DHT22;8207;52.494;4.654;2022-10-16T12:24:32;18.60;1.00
16200;DHT22;8207;52.494;4.654;2022-10-16T12:26:59;18.70;1.00
16200;DHT22;8207;52.494;4.654;2022-10-16T12:29:33;18.70;1.00
16200;DHT22;8207;52.494;4.654;2022-10-16T12:32:02;18.80;1.00
16200;DHT22;8207;52.494;4.654;2022-10-16T12:34:35;18.80;1.00
16200;DHT22;8207;52.494;4.654;2022-10-16T12:37:19;18.80;1.00
16200;DHT22;8207;52.494;4.654;2022-10-16T12:39:49;18.90;1.00
16200;DHT22;8207;52.494;4.654;2022-10-16T12:42:22;18.80;1.00
16200;DHT22;8207;52.494;4.654;2022-10-16T12:44:50;18.90;1.00
16200;DHT22;8207;52.494;4.654;2022-10-16T12:47:21;18.90;1.00
16200;DHT22;8207;52.494;4.654;2022-10-16T12:49:50;18.90;1.00
16200;DHT22;8207;52.494;4.654;2022-10-16T12:52:26;18.80;1.00
16200;DHT22;8207;52.494;4.654;2022-10-16T12:54:57;18.80;1.00
16200;DHT22;8207;52.494;4.654;2022-10-16T12:57:38;18.70;1.00
16200;DHT22;8207;52.494;4.654;2022-10-16T13:00:14;18.80;1.00
16200;DHT22;8207;52.494;4.654;2022-10-16T13:06:04;18.80;1.00
16200;DHT22;8207;52.494;4.654;2022-10-16T13:08:49;18.70;1.00
16200;DHT22;8207;52.494;4.654;2022-10-16T13:11:28;18.70;1.00
16200;DHT22;8207;52.494;4.654;2022-10-16T13:14:15;18.60;1.00
16200;DHT22;8207;52.494;4.654;2022-10-16T13:16:54;18.40;1.00
16200;DHT22;8207;52.494;4.654;2022-10-16T13:19:29;18.20;1.00
16200;DHT22;8207;52.494;4.654;2022-10-16T13:22:03;18.10;99.90
16200;DHT22;8207;52.494;4.654;2022-10-16T13:24:48;18.10;1.00
16200;DHT22;8207;52.494;4.654;2022-10-16T13:27:29;18.10;1.00
16200;DHT22;8207;52.494;4.654;2022-10-16T13:30:02;18.20;1.00
16200;DHT22;8207;52.494;4.654;2022-10-16T13:32:35;18.10;1.00
16200;DHT22;8207;52.494;4.654;2022-10-16T13:35:02;18.00;1.00
16200;DHT22;8207;52.494;4.654;2022-10-16T13:37:29;18.00;1.00
16200;DHT22;8207;52.494;4.654;2022-10-16T13:40:11;17.90;1.00
16200;DHT22;8207;52.494;4.654;2022-10-16T13:42:45;17.80;1.00
16200;DHT22;8207;52.494;4.654;2022-10-16T13:45:19;17.70;1.00
16200;DHT22;8207;52.494;4.654;2022-10-16T13:47:46;17.60;1.00
16200;DHT22;8207;52.494;4.654;2022-10-16T13:50:15;17.50;1.00
16200;DHT22;8207;52.494;4.654;2022-10-16T13:52:42;17.50;1.00
16200;DHT22;8207;52.494;4.654;2022-10-16T13:55:13;17.40;1.00
16200;DHT22;8207;52.494;4.654;2022-10-16T13:57:40;17.40;1.00
16200;DHT22;8207;52.494;4.654;2022-10-16T14:00:20;17.30;1.00
16200;DHT22;8207;52.494;4.654;2022-10-16T14:02:53;17.30;1.00
16200;DHT22;8207;52.494;4.654;2022-10-16T14:05:22;17.20;1.00
16200;DHT22;8207;52.494;4.654;2022-10-16T14:07:50;17.20;1.00
16200;DHT22;8207;52.494;4.654;2022-10-16T14:10:23;17.10;1.00
16200;DHT22;8207;52.494;4.654;2022-10-16T14:12:56;17.10;1.00
16200;DHT22;8207;52.494;4.654;2022-10-16T14:15:25;17.10;1.00
16200;DHT22;8207;52.494;4.654;2022-10-16T14:17:53;17.10;1.00
16200;DHT22;8207;52.494;4.654;2022-10-16T14:20:24;17.10;1.00
16200;DHT22;8207;52.494;4.654;2022-10-16T14:23:02;17.20;1.00
16200;DHT22;8207;52.494;4.654;2022-10-16T14:25:31;17.10;1.00
16200;DHT22;8207;52.494;4.654;2022-10-16T14:28:03;17.20;1.00
16200;DHT22;8207;52.494;4.654;2022-10-16T14:30:34;17.10;1.00
16200;DHT22;8207;52.494;4.654;2022-10-16T14:33:03;17.20;1.00
16200;DHT22;8207;52.494;4.654;2022-10-16T14:35:32;17.10;14.00
16200;DHT22;8207;52.494;4.654;2022-10-16T14:38:00;17.10;25.10
16200;DHT22;8207;52.494;4.654;2022-10-16T14:40:30;17.00;49.90
16200;DHT22;8207;52.494;4.654;2022-10-16T14:42:58;17.00;78.00
16200;DHT22;8207;52.494;4.654;2022-10-16T14:45:28;17.00;93.50
16200;DHT22;8207;52.494;4.654;2022-10-16T14:47:59;17.00;68.80
16200;DHT22;8207;52.494;4.654;2022-10-16T14:50:26;17.00;78.50
16200;DHT22;8207;52.494;4.654;2022-10-16T14:52:54;16.90;74.30
16200;DHT22;8207;52.494;4.654;2022-10-16T14:55:21;16.90;67.00
16200;DHT22;8207;52.494;4.654;2022-10-16T14:57:48;16.90;81.10
16200;DHT22;8207;52.494;4.654;2022-10-16T15:00:18;16.80;82.00
16200;DHT22;8207;52.494;4.654;2022-10-16T15:02:46;16.80;92.40
16200;DHT22;8207;52.494;4.654;2022-10-16T15:05:16;16.80;90.10
16200;DHT22;8207;52.494;4.654;2022-10-16T15:07:44;16.80;92.50
16200;DHT22;8207;52.494;4.654;2022-10-16T15:10:12;16.70;8.10
16200;DHT22;8207;52.494;4.654;2022-10-16T15:12:39;16.70;17.00
16200;DHT22;8207;52.494;4.654;2022-10-16T15:15:31;16.60;23.80
16200;DHT22;8207;52.494;4.654;2022-10-16T15:17:59;16.60;35.60
16200;DHT22;8207;52.494;4.654;2022-10-16T15:20:29;16.60;26.50
16200;DHT22;8207;52.494;4.654;2022-10-16T15:22:57;16.60;35.90
16200;DHT22;8207;52.494;4.654;2022-10-16T15:25:36;16.50;60.90
16200;DHT22;8207;52.494;4.654;2022-10-16T15:28:05;16.50;69.40
16200;DHT22;8207;52.494;4.654;2022-10-16T15:30:32;16.40;92.90
16200;DHT22;8207;52.494;4.654;2022-10-16T15:32:59;16.40;99.90
16200;DHT22;8207;52.494;4.654;2022-10-16T15:35:27;16.40;99.90
16200;DHT22;8207;52.494;4.654;2022-10-16T15:37:54;16.30;99.90
16200;DHT22;8207;52.494;4.654;2022-10-16T15:40:22;16.30;99.90
16200;DHT22;8207;52.494;4.654;2022-10-16T15:42:49;16.20;99.90
16200;DHT22;8207;52.494;4.654;2022-10-16T15:45:16;16.20;99.90
16200;DHT22;8207;52.494;4.654;2022-10-16T15:47:44;16.20;99.90
16200;DHT22;8207;52.494;4.654;2022-10-16T15:50:13;16.10;99.90
16200;DHT22;8207;52.494;4.654;2022-10-16T15:52:42;16.10;99.90
16200;DHT22;8207;52.494;4.654;2022-10-16T15:55:11;16.00;99.90
16200;DHT22;8207;52.494;4.654;2022-10-16T15:57:38;16.00;99.90
16200;DHT22;8207;52.494;4.654;2022-10-16T16:00:07;15.90;99.90
16200;DHT22;8207;52.494;4.654;2022-10-16T16:02:34;15.90;99.90
16200;DHT22;8207;52.494;4.654;2022-10-16T16:05:01;15.90;99.90
16200;DHT22;8207;52.494;4.654;2022-10-16T16:07:32;15.80;99.90
16200;DHT22;8207;52.494;4.654;2022-10-16T16:10:00;15.80;99.90
16200;DHT22;8207;52.494;4.654;2022-10-16T16:12:27;15.70;99.90
16200;DHT22;8207;52.494;4.654;2022-10-16T16:14:54;15.70;99.90
16200;DHT22;8207;52.494;4.654;2022-10-16T16:17:21;15.60;99.90